Terminal Aerodrome Forecast
Issued by NWS Wilmington, OH

Home | Current Version | Previous Version | Text Only | Print | Product List | Glossary On
Versions: 1 2 3 4 5 6 7 8 9 10 11 12 13 14 15 16 17
000
FTUS41 KILN 181737
TAFCMH
TAF
KCMH 181737Z 1818/1918 23010KT 5SM -DZ BR OVC007
      TEMPO 1818/1821 P6SM -DZ OVC011
     FM182100 23009KT P6SM -DZ OVC011
     FM190300 23007KT P6SM OVC018
     FM191600 24013KT P6SM BKN022=

USA.gov is the U.S. government's official web portal to all federal, state and local government web resources and services.